createdAt,value
2023-05-07T00:03:08.040Z,20.84
2023-05-07T00:08:54.215Z,20.8
2023-05-07T00:14:40.532Z,20.76
2023-05-07T00:20:25.363Z,20.77
2023-05-07T00:26:10.001Z,20.71
2023-05-07T00:31:54.764Z,20.67
2023-05-07T00:37:39.866Z,20.67
2023-05-07T00:43:28.241Z,20.64
2023-05-07T00:49:13.063Z,20.6
2023-05-07T00:54:57.989Z,20.57
2023-05-07T01:00:42.814Z,20.53
2023-05-07T01:06:28.361Z,20.54
2023-05-07T01:12:14.357Z,20.49
2023-05-07T01:17:59.114Z,20.42
2023-05-07T01:23:45.028Z,20.4
2023-05-07T01:29:30.324Z,20.35
2023-05-07T01:35:19.403Z,20.28
2023-05-07T01:41:04.710Z,20.28
2023-05-07T01:46:49.960Z,20.23
2023-05-07T01:52:35.382Z,20.18
2023-05-07T01:58:20.130Z,20.14
2023-05-07T02:04:05.166Z,20.11
2023-05-07T02:09:50.546Z,20.08
2023-05-07T02:15:36.120Z,20.06
2023-05-07T02:21:21.335Z,20.04
2023-05-07T02:27:06.063Z,19.99
2023-05-07T02:32:50.719Z,19.95
2023-05-07T02:38:35.995Z,19.95
2023-05-07T02:44:20.616Z,19.92
2023-05-07T02:50:06.229Z,19.89
2023-05-07T02:55:51.435Z,19.86
2023-05-07T03:01:36.166Z,19.85
2023-05-07T03:07:21.028Z,19.86
2023-05-07T03:13:06.181Z,19.84
2023-05-07T03:18:51.279Z,19.85
2023-05-07T03:24:36.292Z,19.86
2023-05-07T03:30:21.201Z,19.87
2023-05-07T03:36:06.244Z,19.91
2023-05-07T03:41:52.027Z,19.92
2023-05-07T03:47:36.739Z,19.94
2023-05-07T03:53:21.528Z,19.92
2023-05-07T03:59:06.086Z,19.87
2023-05-07T04:04:50.975Z,19.85
2023-05-07T04:10:35.783Z,19.89
2023-05-07T04:16:20.562Z,19.88
2023-05-07T04:22:05.497Z,19.85
2023-05-07T04:27:50.197Z,19.84
2023-05-07T04:33:36.594Z,19.84
2023-05-07T04:39:21.526Z,19.86
2023-05-07T04:45:06.891Z,19.88
2023-05-07T04:50:52.533Z,19.93
2023-05-07T04:56:37.278Z,20.01
2023-05-07T05:02:22.221Z,20.04
2023-05-07T05:08:07.596Z,20.1
2023-05-07T05:13:52.399Z,20.13
2023-05-07T05:19:37.068Z,20.16
2023-05-07T05:25:22.065Z,20.18
2023-05-07T05:31:06.812Z,20.19
2023-05-07T05:36:51.844Z,20.25
2023-05-07T05:42:36.552Z,20.24
2023-05-07T05:48:21.227Z,20.26
2023-05-07T05:54:06.082Z,20.35
2023-05-07T05:59:51.374Z,20.36
2023-05-07T06:05:36.042Z,20.4
2023-05-07T06:11:20.904Z,20.48
2023-05-07T06:17:05.647Z,20.51
2023-05-07T06:22:50.531Z,20.54
2023-05-07T06:28:35.176Z,20.57
2023-05-07T06:34:20.031Z,20.66
2023-05-07T06:40:05.762Z,20.77
2023-05-07T06:45:51.405Z,20.85
2023-05-07T06:51:36.506Z,20.97
2023-05-07T06:57:21.220Z,21.08
2023-05-07T07:03:06.900Z,21.17
2023-05-07T07:08:51.782Z,21.33
2023-05-07T07:14:36.406Z,21.33
2023-05-07T07:20:21.353Z,21.35
2023-05-07T07:26:06.299Z,21.35
2023-05-07T07:31:50.901Z,21.39
2023-05-07T07:37:35.946Z,21.51
2023-05-07T07:43:20.774Z,21.5
2023-05-07T07:49:05.636Z,21.46
2023-05-07T07:54:50.249Z,21.4
2023-05-07T08:00:35.344Z,21.41
2023-05-07T08:06:20.225Z,21.49
2023-05-07T08:12:05.621Z,21.53
2023-05-07T08:17:50.379Z,21.52
2023-05-07T08:23:35.459Z,21.52
2023-05-07T08:29:21.465Z,21.57
2023-05-07T08:35:07.167Z,21.67
2023-05-07T08:40:51.887Z,21.78
2023-05-07T08:46:36.665Z,21.86
2023-05-07T08:52:22.541Z,21.96
2023-05-07T08:58:07.121Z,22.05
2023-05-07T09:03:52.863Z,22.12
2023-05-07T09:09:39.070Z,22.17
2023-05-07T09:15:25.245Z,22.28
2023-05-07T09:21:10.263Z,22.37
2023-05-07T09:26:55.261Z,22.33
2023-05-07T09:32:40.245Z,22.36
2023-05-07T09:38:26.635Z,22.48
2023-05-07T09:44:11.348Z,22.55
2023-05-07T09:49:57.271Z,22.75
2023-05-07T09:55:42.665Z,22.72
2023-05-07T10:01:27.859Z,22.69
2023-05-07T10:07:13.278Z,22.65
2023-05-07T10:12:58.227Z,22.58
2023-05-07T10:18:44.137Z,22.55
2023-05-07T10:24:33.422Z,22.56
2023-05-07T10:36:19.172Z,22.75
2023-05-07T10:42:12.852Z,22.79
2023-05-07T10:48:17.239Z,22.93
2023-05-07T10:54:24.105Z,23.04
2023-05-07T11:00:15.726Z,23.04
2023-05-07T11:06:17.339Z,23.13
2023-05-07T11:12:02.308Z,23.25
2023-05-07T11:17:58.168Z,23.38
2023-05-07T11:24:02.059Z,23.54
2023-05-07T11:29:47.645Z,23.61
2023-05-07T11:35:32.661Z,23.7
2023-05-07T11:41:20.827Z,23.75
2023-05-07T11:47:06.668Z,23.77
2023-05-07T11:52:55.197Z,23.76
2023-05-07T11:58:41.278Z,23.78
2023-05-07T12:04:30.766Z,23.8
2023-05-07T12:10:16.328Z,23.88
2023-05-07T12:16:01.398Z,23.84
2023-05-07T12:21:47.001Z,23.87
2023-05-07T12:27:31.820Z,23.98
2023-05-07T12:33:17.368Z,24.04
2023-05-07T12:39:02.321Z,24.08
2023-05-07T12:44:47.397Z,24.14
2023-05-07T12:50:32.233Z,24.19
2023-05-07T12:56:17.105Z,24.22
2023-05-07T13:02:01.859Z,24.23
2023-05-07T13:07:57.857Z,24.27
2023-05-07T13:13:42.776Z,24.34
2023-05-07T13:19:29.049Z,24.36
2023-05-07T13:25:15.520Z,24.43
2023-05-07T13:31:00.496Z,24.48
2023-05-07T13:36:45.244Z,24.52
2023-05-07T13:42:29.868Z,24.47
2023-05-07T13:48:14.513Z,24.38
2023-05-07T13:53:59.414Z,24.29
2023-05-07T13:59:44.369Z,24.23
2023-05-07T14:05:29.101Z,24.21
2023-05-07T14:11:13.933Z,24.19
2023-05-07T14:16:58.521Z,24.15
2023-05-07T14:22:43.427Z,24.15
2023-05-07T14:28:28.290Z,24.15
2023-05-07T14:34:12.684Z,24.14
2023-05-07T14:39:57.362Z,24.19
2023-05-07T14:45:42.026Z,24.36
2023-05-07T14:51:27.718Z,24.53
2023-05-07T14:57:12.452Z,24.68
2023-05-07T15:03:01.931Z,24.82
2023-05-07T15:08:46.912Z,25.05
2023-05-07T15:14:31.672Z,25.22
2023-05-07T15:20:16.658Z,25.47
2023-05-07T15:26:01.416Z,25.77
2023-05-07T15:31:46.225Z,26.09
2023-05-07T15:37:31.203Z,26.33
2023-05-07T15:43:15.964Z,26.56
2023-05-07T15:49:02.502Z,26.89
2023-05-07T15:54:47.388Z,27.29
2023-05-07T16:00:32.153Z,27.75
2023-05-07T16:06:16.784Z,28.12
2023-05-07T16:12:01.398Z,28.46
2023-05-07T16:17:46.371Z,29.12
2023-05-07T16:23:31.567Z,29.58
2023-05-07T16:29:16.433Z,29.95
2023-05-07T16:35:01.493Z,32.69
2023-05-07T16:40:46.477Z,35.38
2023-05-07T16:46:31.166Z,36.38
2023-05-07T16:52:15.930Z,37.48
2023-05-07T16:58:00.581Z,38.74
2023-05-07T17:03:45.357Z,37.85
2023-05-07T17:09:30.484Z,36.32
2023-05-07T17:15:15.456Z,36.17
2023-05-07T17:21:00.250Z,33.91
2023-05-07T17:26:44.773Z,32.68
2023-05-07T17:32:29.590Z,31.7
2023-05-07T17:38:14.265Z,30.96
2023-05-07T17:43:58.971Z,30.44
2023-05-07T17:49:43.672Z,29.96
2023-05-07T17:55:28.575Z,29.52
2023-05-07T18:01:13.370Z,29.04
2023-05-07T18:06:58.310Z,28.61
2023-05-07T18:12:43.259Z,28.17
2023-05-07T18:18:28.074Z,27.81
2023-05-07T18:24:13.164Z,27.5
2023-05-07T18:29:57.839Z,27.18
2023-05-07T18:35:42.828Z,26.9
2023-05-07T18:41:27.739Z,26.64
2023-05-07T18:47:13.466Z,26.4
2023-05-07T18:52:59.426Z,26.08
2023-05-07T18:58:44.130Z,25.81
2023-05-07T19:04:28.938Z,25.6
2023-05-07T19:10:14.558Z,25.41
2023-05-07T19:15:59.511Z,25.24
2023-05-07T19:21:44.845Z,25.06
2023-05-07T19:27:29.760Z,24.88
2023-05-07T19:33:14.645Z,24.7
2023-05-07T19:38:59.457Z,24.53
2023-05-07T19:44:44.282Z,24.35
2023-05-07T19:50:29.027Z,24.18
2023-05-07T19:56:13.772Z,24.04
2023-05-07T20:01:58.424Z,23.92
2023-05-07T20:07:44.483Z,23.84
2023-05-07T20:13:30.934Z,23.7
2023-05-07T20:19:15.670Z,23.61
2023-05-07T20:25:00.875Z,23.5
2023-05-07T20:30:46.455Z,23.41
2023-05-07T20:36:31.281Z,23.34
2023-05-07T20:42:16.029Z,23.25
2023-05-07T20:48:00.889Z,23.13
2023-05-07T20:53:47.665Z,23.04
2023-05-07T20:59:32.833Z,22.95
2023-05-07T21:05:17.819Z,22.86
2023-05-07T21:11:02.443Z,22.77
2023-05-07T21:16:47.521Z,22.7
2023-05-07T21:22:32.468Z,22.61
2023-05-07T21:28:17.415Z,22.52
2023-05-07T21:34:01.745Z,22.43
2023-05-07T21:39:46.529Z,22.39
2023-05-07T21:45:31.326Z,22.32
2023-05-07T21:51:22.623Z,22.25
2023-05-07T21:57:09.047Z,22.2
2023-05-07T22:02:53.934Z,22.17
2023-05-07T22:08:39.102Z,22.17
2023-05-07T22:14:24.800Z,22.12
2023-05-07T22:20:10.778Z,22.09
2023-05-07T22:25:57.795Z,22.1
2023-05-07T22:31:42.841Z,22.03
2023-05-07T22:37:27.800Z,22.07
2023-05-07T22:43:12.653Z,21.96
2023-05-07T22:48:57.367Z,21.88
2023-05-07T22:54:42.598Z,21.82
2023-05-07T23:00:27.632Z,21.77
2023-05-07T23:06:12.473Z,21.74
2023-05-07T23:11:57.147Z,21.68
2023-05-07T23:17:41.770Z,21.56
2023-05-07T23:23:27.025Z,21.49
2023-05-07T23:29:11.947Z,21.59
2023-05-07T23:34:56.605Z,21.43
2023-05-07T23:40:41.529Z,21.33
2023-05-07T23:46:26.250Z,21.25
2023-05-07T23:52:11.159Z,21.18
2023-05-07T23:57:56.132Z,21.11
